createdAt,value
2019-04-03T00:02:04.329Z,11.93
2019-04-03T00:07:11.627Z,11.78
2019-04-03T00:12:18.427Z,11.73
2019-04-03T00:17:25.034Z,11.43
2019-04-03T00:22:31.635Z,12.60
2019-04-03T00:27:38.195Z,11.05
2019-04-03T00:32:44.905Z,12.15
2019-04-03T00:37:53.622Z,11.43
2019-04-03T00:42:59.810Z,11.25
2019-04-03T00:48:06.719Z,12.85
2019-04-03T00:53:13.264Z,12.98
2019-04-03T00:58:36.019Z,12.85
2019-04-03T01:03:42.943Z,11.83
2019-04-03T01:08:49.553Z,13.80
2019-04-03T01:13:56.115Z,12.65
2019-04-03T01:19:05.238Z,13.08
2019-04-03T01:24:11.111Z,12.75
2019-04-03T01:29:17.805Z,13.32
2019-04-03T01:34:24.401Z,12.70
2019-04-03T01:39:30.951Z,14.23
2019-04-03T01:44:37.572Z,13.38
2019-04-03T01:49:44.186Z,14.58
2019-04-03T01:54:50.647Z,13.22
2019-04-03T01:59:57.050Z,15.58
2019-04-03T02:05:04.055Z,14.83
2019-04-03T02:10:18.891Z,14.83
2019-04-03T02:15:25.590Z,13.70
2019-04-03T02:20:32.237Z,12.55
2019-04-03T02:25:38.737Z,14.18
2019-04-03T02:30:46.901Z,16.75
2019-04-03T02:35:54.523Z,16.02
2019-04-03T02:41:03.463Z,17.05
2019-04-03T02:46:09.624Z,17.07
2019-04-03T02:51:18.923Z,18.17
2019-04-03T02:56:24.918Z,17.80
2019-04-03T03:01:31.472Z,16.93
2019-04-03T03:06:38.083Z,15.68
2019-04-03T03:11:44.721Z,16.37
2019-04-03T03:16:52.616Z,16.15
2019-04-03T03:22:03.605Z,14.43
2019-04-03T03:27:11.415Z,14.40
2019-04-03T03:32:28.543Z,14.78
2019-04-03T03:37:27.810Z,15.58
2019-04-03T03:42:35.939Z,14.70
2019-04-03T03:47:44.461Z,14.15
2019-04-03T03:52:51.624Z,14.20
2019-04-03T03:58:00.429Z,14.65
2019-04-03T04:03:10.088Z,14.03
2019-04-03T04:08:15.863Z,15.50
2019-04-03T04:13:22.481Z,14.40
2019-04-03T04:18:29.190Z,15.43
2019-04-03T04:23:36.687Z,13.95
2019-04-03T04:28:43.736Z,14.43
2019-04-03T04:33:50.280Z,14.93
2019-04-03T04:38:57.944Z,14.53
2019-04-03T04:44:05.204Z,12.95
2019-04-03T04:49:12.728Z,14.23
2019-04-03T04:54:19.503Z,14.98
2019-04-03T04:59:26.078Z,14.40
2019-04-03T05:04:32.696Z,15.30
2019-04-03T05:09:40.312Z,15.38
2019-04-03T05:14:48.778Z,16.30
2019-04-03T05:19:55.365Z,14.50
2019-04-03T05:25:03.088Z,14.45
2019-04-03T05:30:10.258Z,15.60
2019-04-03T05:35:17.078Z,16.95
2019-04-03T05:40:25.646Z,18.23
2019-04-03T05:45:34.488Z,17.12
2019-04-03T05:50:41.146Z,18.00
2019-04-03T05:55:47.787Z,15.88
2019-04-03T06:01:04.146Z,16.65
2019-04-03T06:06:02.517Z,17.23
2019-04-03T06:11:09.720Z,18.27
2019-04-03T06:16:17.167Z,18.70
2019-04-03T06:21:24.157Z,17.67
2019-04-03T06:26:30.810Z,17.12
2019-04-03T06:31:37.500Z,18.12
2019-04-03T06:36:44.155Z,18.40
2019-04-03T06:41:50.691Z,17.17
2019-04-03T06:46:58.726Z,19.45
2019-04-03T06:52:05.865Z,16.97
2019-04-03T06:57:13.867Z,17.50
2019-04-03T07:02:20.619Z,16.57
2019-04-03T07:07:34.210Z,15.88
2019-04-03T07:12:35.674Z,16.45
2019-04-03T07:17:42.439Z,14.95
2019-04-03T07:22:49.140Z,17.50
2019-04-03T07:27:55.723Z,17.25
2019-04-03T07:33:05.051Z,15.70
2019-04-03T07:38:10.620Z,15.32
2019-04-03T07:43:17.253Z,14.87
2019-04-03T07:48:23.966Z,14.80
2019-04-03T07:53:30.526Z,14.90
2019-04-03T07:58:37.451Z,14.65
2019-04-03T08:03:44.188Z,14.87
2019-04-03T08:09:05.351Z,14.58
2019-04-03T08:13:59.073Z,14.47
2019-04-03T08:19:08.155Z,13.65
2019-04-03T08:24:14.076Z,13.48
2019-04-03T08:29:21.026Z,13.10
2019-04-03T08:34:30.689Z,14.43
2019-04-03T08:39:36.586Z,12.93
2019-04-03T08:44:43.316Z,13.15
2019-04-03T08:49:50.117Z,11.48
2019-04-03T08:54:56.844Z,13.13
2019-04-03T09:00:03.397Z,12.40
2019-04-03T09:05:14.123Z,12.25
2019-04-03T09:10:20.782Z,11.53
2019-04-03T09:15:28.318Z,11.20
2019-04-03T09:20:36.025Z,12.03
2019-04-03T09:25:42.891Z,12.28
2019-04-03T09:30:49.749Z,12.20
2019-04-03T09:35:59.550Z,13.22
2019-04-03T09:41:05.878Z,12.98
2019-04-03T09:46:12.551Z,12.23
2019-04-03T09:51:21.903Z,12.30
2019-04-03T09:56:27.772Z,11.90
2019-04-03T10:01:34.485Z,11.55
2019-04-03T10:06:41.071Z,11.65
2019-04-03T10:11:50.589Z,11.75
2019-04-03T10:16:56.170Z,10.72
2019-04-03T10:22:03.014Z,11.22
2019-04-03T10:27:11.219Z,11.05
2019-04-03T10:32:19.271Z,10.80
2019-04-03T10:37:25.900Z,10.98
2019-04-03T10:42:32.747Z,10.78
2019-04-03T10:47:43.387Z,11.10
2019-04-03T10:52:48.733Z,11.03
2019-04-03T10:57:56.393Z,11.22
2019-04-03T11:03:03.116Z,11.33
2019-04-03T11:08:09.764Z,10.70
2019-04-03T11:13:16.597Z,10.70
2019-04-03T11:18:23.881Z,11.18
2019-04-03T11:23:40.058Z,12.18
2019-04-03T11:28:39.157Z,12.60
2019-04-03T11:33:50.134Z,12.60
2019-04-03T11:39:10.519Z,13.05
2019-04-03T11:44:04.020Z,12.65
2019-04-03T11:49:10.630Z,12.18
2019-04-03T11:54:17.411Z,12.63
2019-04-03T11:59:24.462Z,11.22
2019-04-03T12:04:31.546Z,13.40
2019-04-03T12:09:38.149Z,12.95
2019-04-03T12:14:44.885Z,12.82
2019-04-03T12:19:51.546Z,12.95
2019-04-03T12:24:58.089Z,12.15
2019-04-03T12:30:06.532Z,11.83
2019-04-03T12:35:13.937Z,11.97
2019-04-03T12:40:21.513Z,11.68
2019-04-03T12:45:28.367Z,12.23
2019-04-03T12:50:35.130Z,12.07
2019-04-03T12:55:43.023Z,11.45
2019-04-03T13:00:50.327Z,11.83
2019-04-03T13:05:59.580Z,11.33
2019-04-03T13:11:06.318Z,13.20
2019-04-03T13:16:12.984Z,12.78
2019-04-03T13:21:19.692Z,12.63
2019-04-03T13:26:26.467Z,12.73
2019-04-03T13:31:33.150Z,12.43
2019-04-03T13:36:39.930Z,12.20
2019-04-03T13:41:46.573Z,13.15
2019-04-03T13:46:53.382Z,13.53
2019-04-03T13:52:05.482Z,13.45
2019-04-03T13:57:08.522Z,14.07
2019-04-03T14:02:15.269Z,14.63
2019-04-03T14:07:22.182Z,14.43
2019-04-03T14:12:29.787Z,13.78
2019-04-03T14:17:37.161Z,13.08
2019-04-03T14:22:44.103Z,12.93
2019-04-03T14:27:51.127Z,13.15
2019-04-03T14:32:58.536Z,12.98
2019-04-03T14:38:11.587Z,13.18
2019-04-03T14:43:17.429Z,13.65
2019-04-03T14:48:26.132Z,15.00
2019-04-03T14:53:32.422Z,14.47
2019-04-03T14:58:39.395Z,15.50
2019-04-03T15:03:46.008Z,16.65
2019-04-03T15:08:54.696Z,15.20
2019-04-03T15:14:00.939Z,15.03
2019-04-03T15:19:08.387Z,14.95
2019-04-03T15:24:15.342Z,13.68
2019-04-03T15:29:22.571Z,13.08
2019-04-03T15:34:29.531Z,12.95
2019-04-03T15:39:36.716Z,12.60
2019-04-03T15:44:43.476Z,14.25
2019-04-03T15:49:50.116Z,11.35
2019-04-03T15:54:56.690Z,8.33
2019-04-03T16:00:03.673Z,8.48
2019-04-03T16:05:10.783Z,8.40
2019-04-03T16:10:17.455Z,8.85
2019-04-03T16:15:24.624Z,9.23
2019-04-03T16:20:31.397Z,7.92
2019-04-03T16:25:38.185Z,8.93
2019-04-03T16:30:52.408Z,8.65
2019-04-03T16:35:57.587Z,11.63
2019-04-03T16:41:07.903Z,10.40
2019-04-03T16:46:15.174Z,12.23
2019-04-03T16:51:22.369Z,10.30
2019-04-03T16:56:29.293Z,9.55
2019-04-03T17:01:37.359Z,10.43
2019-04-03T17:06:47.587Z,10.80
2019-04-03T17:11:55.046Z,9.83
2019-04-03T17:17:01.949Z,10.50
2019-04-03T17:22:09.891Z,9.55
2019-04-03T17:27:16.683Z,10.23
2019-04-03T17:32:29.959Z,11.08
2019-04-03T17:37:38.143Z,10.30
2019-04-03T17:42:45.025Z,10.63
2019-04-03T17:47:53.865Z,13.35
2019-04-03T17:53:00.585Z,14.70
2019-04-03T17:58:09.947Z,15.23
2019-04-03T18:03:19.363Z,14.07
2019-04-03T18:08:24.869Z,15.00
2019-04-03T18:13:31.477Z,14.63
2019-04-03T18:18:38.147Z,13.30
2019-04-03T18:23:44.809Z,13.00
2019-04-03T18:28:51.509Z,13.50
2019-04-03T18:33:58.155Z,16.80
2019-04-03T18:39:09.708Z,13.65
2019-04-03T18:44:21.943Z,11.75
2019-04-03T18:49:24.602Z,12.10
2019-04-03T18:54:31.117Z,13.13
2019-04-03T18:59:37.685Z,12.75
2019-04-03T19:04:44.222Z,14.30
2019-04-03T19:09:51.824Z,11.97
2019-04-03T19:15:02.534Z,12.90
2019-04-03T19:20:11.403Z,12.45
2019-04-03T19:25:19.347Z,13.43
2019-04-03T19:30:28.475Z,11.73
2019-04-03T19:35:34.373Z,11.25
2019-04-03T19:40:41.193Z,10.75
2019-04-03T19:45:51.429Z,11.80
2019-04-03T19:50:56.636Z,12.00
2019-04-03T19:56:03.266Z,10.90
2019-04-03T20:01:09.957Z,11.12
2019-04-03T20:06:16.449Z,11.63
2019-04-03T20:11:23.196Z,11.22
2019-04-03T20:16:31.739Z,11.53
2019-04-03T20:21:38.371Z,10.98
2019-04-03T20:26:46.674Z,11.78
2019-04-03T20:31:53.391Z,11.30
2019-04-03T20:37:00.010Z,11.20
2019-04-03T20:42:08.099Z,11.18
2019-04-03T20:47:14.906Z,11.65
2019-04-03T20:52:21.391Z,11.03
2019-04-03T20:57:28.025Z,11.50
2019-04-03T21:02:34.570Z,10.95
2019-04-03T21:07:41.209Z,11.43
2019-04-03T21:12:47.826Z,11.60
2019-04-03T21:17:54.369Z,10.43
2019-04-03T21:23:02.900Z,11.57
2019-04-03T21:28:10.886Z,10.90
2019-04-03T21:33:17.631Z,11.38
2019-04-03T21:38:24.197Z,10.85
2019-04-03T21:43:30.855Z,11.18
2019-04-03T21:48:37.491Z,10.85
2019-04-03T21:53:43.877Z,11.60
2019-04-03T21:58:50.331Z,10.98
2019-04-03T22:03:56.901Z,11.25
2019-04-03T22:09:04.560Z,11.15
2019-04-03T22:14:11.707Z,11.28
2019-04-03T22:19:18.458Z,10.72
2019-04-03T22:24:25.007Z,11.22
2019-04-03T22:29:31.659Z,10.53
2019-04-03T22:34:38.202Z,10.43
2019-04-03T22:39:44.707Z,10.95
2019-04-03T22:44:51.115Z,10.60
2019-04-03T22:49:57.665Z,10.75
2019-04-03T22:55:04.433Z,11.40
2019-04-03T23:00:11.249Z,10.60
2019-04-03T23:05:17.864Z,11.83
2019-04-03T23:10:24.917Z,11.53
2019-04-03T23:15:31.477Z,11.10
2019-04-03T23:20:39.091Z,10.95
2019-04-03T23:25:45.714Z,11.68
2019-04-03T23:30:52.278Z,11.85
2019-04-03T23:35:58.901Z,11.33
2019-04-03T23:41:06.148Z,11.15
2019-04-03T23:46:14.746Z,11.40
2019-04-03T23:51:23.348Z,11.20
2019-04-03T23:56:31.096Z,11.45
